Time;durP1;ratioP1;P1;durP2;ratioP2;P2;SDS_P1;SDS_P2;PMS_P1;PMS_P2;Temp;Humidity;BMP_temperature;BMP_pressure;BME280_temperature;BME280_humidity;BME280_pressure;Samples;Min_cycle;Max_cycle;Signal;HPM_P1;HPM_P2
2022/10/31 00:01:58;;;;;;;16.75;8.45;;;;;;;13.71;78.94;98772.25;7399794;19;20018;-82
2022/10/31 00:04:49;;;;;;;23.33;8.82;;;;;;;13.60;79.14;98769.94;7410713;19;20006;-85
2022/10/31 00:07:55;;;;;;;13.02;8.15;;;;;;;13.51;79.73;98771.75;7399042;19;20035;-83
2022/10/31 00:10:39;;;;;;;13.52;8.88;;;;;;;13.52;79.58;98769.94;7396146;19;20065;-84
2022/10/31 00:13:19;;;;;;;16.55;8.10;;;;;;;13.73;78.69;98772.09;7395826;19;20006;-82
2022/10/31 00:15:46;;;;;;;12.85;8.43;;;;;;;13.60;78.55;98769.94;7393238;19;20021;-81
2022/10/31 00:18:22;;;;;;;12.73;8.38;;;;;;;13.56;79.04;98772.09;7392842;19;20015;-82
2022/10/31 00:21:11;;;;;;;19.75;8.32;;;;;;;13.51;79.08;98771.75;7394866;19;20414;-82
2022/10/31 00:23:58;;;;;;;33.33;9.80;;;;;;;13.48;79.12;98768.59;7403784;19;20014;-82
2022/10/31 00:27:20;;;;;;;14.85;7.97;;;;;;;13.53;78.93;98768.91;7401303;19;20022;-82
2022/10/31 00:49:54;;;;;;;21.05;8.55;;;;;;;13.32;78.59;98764.94;7406122;19;20001;-82
2022/10/31 00:53:48;;;;;;;19.77;8.82;;;;;;;13.24;79.06;98770.16;7407782;19;20010;-83
2022/10/31 00:57:20;;;;;;;20.80;7.50;;;;;;;13.46;78.57;98773.25;7406579;19;20019;-82
2022/10/31 01:07:44;;;;;;;13.85;7.55;;;;;;;13.24;78.79;98758.72;7403699;19;20001;-82
2022/10/31 01:11:21;;;;;;;14.15;7.45;;;;;;;13.17;78.61;98762.03;7407276;19;20027;-83
2022/10/31 01:14:18;;;;;;;13.70;7.72;;;;;;;13.11;79.14;98767.16;7401773;19;20373;-82
2022/10/31 01:16:45;;;;;;;25.50;8.30;;;;;;;13.09;79.55;98763.84;7395130;19;22962;-82
2022/10/31 01:19:13;;;;;;;13.98;8.05;;;;;;;13.13;79.39;98768.66;7391220;19;20031;-81
2022/10/31 01:21:40;;;;;;;11.70;7.43;;;;;;;13.10;79.10;98766.34;7395631;19;20035;-82
2022/10/31 01:24:08;;;;;;;17.88;7.60;;;;;;;13.07;79.18;98763.19;7394058;19;20042;-81
2022/10/31 01:26:37;;;;;;;10.00;7.07;;;;;;;13.03;79.14;98764.47;7391178;19;20012;-82
2022/10/31 01:29:06;;;;;;;17.02;7.35;;;;;;;12.96;79.26;98761.66;7391149;19;20018;-81
2022/10/31 01:31:36;;;;;;;10.13;6.38;;;;;;;12.96;79.50;98762.47;7395645;19;20032;-82
2022/10/31 01:34:03;;;;;;;14.95;7.30;;;;;;;12.93;79.42;98767.28;7393686;19;20014;-81
2022/10/31 01:36:37;;;;;;;9.07;6.57;;;;;;;12.96;79.55;98766.97;7390978;19;20015;-82
2022/10/31 01:39:07;;;;;;;11.88;6.72;;;;;;;12.92;79.55;98768.25;7391676;19;20013;-82
2022/10/31 01:41:37;;;;;;;18.50;8.45;;;;;;;12.94;79.68;98761.81;7395819;19;20475;-81
2022/10/31 01:44:24;;;;;;;14.23;7.90;;;;;;;12.99;78.99;98752.53;7392127;19;20134;-81
2022/10/31 01:47:07;;;;;;;12.70;7.10;;;;;;;12.95;78.58;98759.97;7397014;19;20052;-82
2022/10/31 01:49:39;;;;;;;15.00;6.80;;;;;;;12.97;78.71;98755.34;7396658;19;20048;-81
2022/10/31 01:52:12;;;;;;;12.68;7.45;;;;;;;12.91;79.10;98758.66;7391858;19;20007;-81
2022/10/31 01:54:46;;;;;;;13.45;7.25;;;;;;;12.94;78.99;98758.31;7391644;19;20022;-82
2022/10/31 02:00:17;;;;;;;13.63;7.18;;;;;;;12.90;79.28;98751.66;7391042;19;20351;-82
2022/10/31 02:03:04;;;;;;;13.52;6.72;;;;;;;12.93;79.20;98751.34;7394170;19;20002;-82
2022/10/31 02:05:32;;;;;;;13.50;6.38;;;;;;;12.94;78.94;98742.38;7395193;19;20026;-82
2022/10/31 02:08:28;;;;;;;12.45;7.05;;;;;;;13.01;78.58;98735.44;7390578;19;20018;-82
2022/10/31 02:11:19;;;;;;;12.80;6.75;;;;;;;13.06;77.90;98741.09;7390920;19;20520;-81
2022/10/31 02:13:47;;;;;;;13.40;6.78;;;;;;;13.01;77.55;98748.72;7395764;19;20121;-81
2022/10/31 02:16:29;;;;;;;15.77;6.03;;;;;;;13.00;77.25;98747.03;7395024;19;20078;-82
2022/10/31 02:19:01;;;;;;;11.43;6.20;;;;;;;12.94;77.86;98745.88;7402181;19;20361;-82
2022/10/31 02:28:52;;;;;;;16.30;6.45;;;;;;;12.85;77.59;98748.66;7398773;19;20049;-82
2022/10/31 02:31:27;;;;;;;14.55;6.30;;;;;;;12.67;78.45;98749.59;7402135;19;20048;-81
2022/10/31 02:34:18;;;;;;;19.42;6.93;;;;;;;12.90;77.74;98749.00;7401006;19;20019;-82
2022/10/31 02:36:49;;;;;;;9.93;6.13;;;;;;;12.72;78.17;98751.78;7397047;19;20501;-81
2022/10/31 02:39:23;;;;;;;17.15;6.68;;;;;;;12.62;78.93;98753.72;7402138;19;20024;-81
2022/10/31 02:42:08;;;;;;;10.00;6.80;;;;;;;12.56;79.62;98749.03;7400846;19;20035;-82
2022/10/31 02:44:43;;;;;;;7.75;6.25;;;;;;;12.70;79.43;98751.94;7400452;19;20015;-82
2022/10/31 02:47:16;;;;;;;11.80;6.90;;;;;;;12.69;79.07;98755.59;7399883;19;20018;-81
2022/10/31 02:50:05;;;;;;;14.75;7.13;;;;;;;12.67;78.72;98743.47;7398074;19;20054;-82
2022/10/31 02:52:35;;;;;;;10.63;6.72;;;;;;;12.81;78.17;98747.31;7401154;19;20007;-81
2022/10/31 02:55:34;;;;;;;11.03;6.63;;;;;;;12.77;78.27;98748.63;7398388;19;20026;-83
2022/10/31 02:58:10;;;;;;;14.05;6.35;;;;;;;12.67;78.48;98746.94;7398518;19;20011;-82
2022/10/31 03:01:14;;;;;;;14.80;6.57;;;;;;;12.76;78.09;98760.25;7403047;19;20018;-83
2022/10/31 03:04:02;;;;;;;10.15;6.00;;;;;;;12.67;78.29;98738.97;7405787;19;20022;-83
2022/10/31 03:06:37;;;;;;;12.70;6.47;;;;;;;12.74;77.58;98747.97;7398470;19;20011;-82
2022/10/31 03:09:13;;;;;;;9.43;5.40;;;;;;;12.71;77.52;98745.63;7397006;19;20062;-82
2022/10/31 03:11:56;;;;;;;13.95;6.57;;;;;;;12.65;77.39;98746.28;7402946;19;20399;-82
2022/10/31 03:14:32;;;;;;;10.65;6.00;;;;;;;12.55;77.43;98742.09;7404172;19;20024;-83
2022/10/31 03:17:02;;;;;;;11.95;5.90;;;;;;;12.43;77.72;98742.38;7401356;19;20085;-83
2022/10/31 03:19:33;;;;;;;15.27;6.10;;;;;;;12.29;78.20;98727.84;7398175;19;20014;-83
2022/10/31 03:22:17;;;;;;;12.18;7.03;;;;;;;12.23;78.38;98732.97;7401581;19;20010;-83
2022/10/31 03:24:45;;;;;;;9.02;5.47;;;;;;;12.24;78.60;98730.16;7396995;19;20047;-83
2022/10/31 03:27:15;;;;;;;16.70;6.53;;;;;;;12.30;78.84;98739.31;7394514;19;20022;-83
2022/10/31 03:29:43;;;;;;;17.02;6.65;;;;;;;12.36;79.12;98743.97;7396161;19;20047;-83
2022/10/31 03:32:18;;;;;;;15.75;6.75;;;;;;;12.45;78.62;98744.84;7406376;19;20502;-83
2022/10/31 03:34:46;;;;;;;10.95;6.55;;;;;;;12.33;78.95;98748.78;7404639;19;20018;-84
2022/10/31 03:37:16;;;;;;;9.68;6.03;;;;;;;12.46;78.72;98746.53;7400005;19;20033;-84
2022/10/31 03:39:44;;;;;;;11.70;6.32;;;;;;;12.47;78.12;98753.47;7399924;19;20002;-83
2022/10/31 03:42:20;;;;;;;10.70;6.05;;;;;;;12.48;77.75;98755.13;7403224;19;20006;-83
2022/10/31 03:44:58;;;;;;;8.65;5.22;;;;;;;12.55;76.97;98744.72;7398394;19;20402;-83
2022/10/31 03:47:26;;;;;;;9.48;5.95;;;;;;;12.63;76.67;98747.41;7398910;19;20010;-83
2022/10/31 03:49:57;;;;;;;11.23;5.53;;;;;;;12.63;76.40;98750.91;7404507;19;20006;-83
2022/10/31 03:52:37;;;;;;;14.13;6.38;;;;;;;12.51;76.95;98746.88;7404306;19;20481;-84
2022/10/31 03:55:22;;;;;;;13.40;5.85;;;;;;;12.40;76.59;98741.84;7401839;19;20832;-84
2022/10/31 03:58:25;;;;;;;10.02;6.35;;;;;;;12.17;78.12;98747.69;7400959;19;20010;-83
2022/10/31 04:00:54;;;;;;;16.88;6.20;;;;;;;12.25;78.18;98746.91;7399974;19;20035;-83
2022/10/31 04:03:41;;;;;;;11.55;6.32;;;;;;;12.23;78.51;98752.38;7401546;19;20010;-84
2022/10/31 04:06:13;;;;;;;10.43;5.45;;;;;;;12.22;78.46;98753.38;7401962;19;20099;-84
2022/10/31 04:08:55;;;;;;;13.80;6.05;;;;;;;12.07;78.72;98749.63;7402938;19;20383;-84
2022/10/31 04:11:25;;;;;;;14.35;6.65;;;;;;;12.20;78.98;98742.06;7405413;19;20010;-84
2022/10/31 04:18:24;;;;;;;10.27;5.20;;;;;;;12.51;76.76;98746.88;7391046;19;20014;-82
2022/10/31 04:21:05;;;;;;;9.30;5.72;;;;;;;12.45;76.55;98743.03;7393169;19;20026;-82
2022/10/31 04:23:58;;;;;;;14.63;5.65;;;;;;;12.49;76.31;98739.06;7393843;19;20545;-81
2022/10/31 04:26:40;;;;;;;7.63;4.75;;;;;;;12.33;76.68;98743.47;7396674;19;20023;-82
2022/10/31 04:29:34;;;;;;;11.85;4.97;;;;;;;12.28;77.28;98731.50;7394793;19;20015;-82
2022/10/31 04:32:02;;;;;;;11.70;5.37;;;;;;;12.20;77.11;98733.28;7395179;19;20446;-82
2022/10/31 04:34:28;;;;;;;9.45;5.50;;;;;;;12.06;77.62;98726.75;7398246;19;20014;-82
2022/10/31 04:36:55;;;;;;;9.57;5.68;;;;;;;11.99;77.39;98725.69;7392254;19;20050;-82
2022/10/31 04:39:22;;;;;;;11.80;6.22;;;;;;;11.81;77.71;98729.19;7385109;19;20018;-81
2022/10/31 04:42:12;;;;;;;8.38;5.03;;;;;;;11.72;78.61;98724.81;7391646;19;20015;-82
2022/10/31 04:44:39;;;;;;;9.20;5.07;;;;;;;11.88;78.75;98724.16;7394027;19;20013;-83
2022/10/31 04:47:05;;;;;;;9.20;5.25;;;;;;;12.02;77.99;98723.56;7389741;19;20019;-82
2022/10/31 04:49:32;;;;;;;11.52;6.07;;;;;;;12.01;77.95;98721.09;7396311;19;20018;-82
2022/10/31 04:51:59;;;;;;;11.48;5.70;;;;;;;12.00;77.93;98716.75;7397309;19;20014;-82
2022/10/31 04:54:25;;;;;;;12.70;4.88;;;;;;;11.86;78.29;98716.34;7391110;19;20018;-82
2022/10/31 04:57:11;;;;;;;13.00;6.25;;;;;;;11.93;78.17;98710.41;7390119;19;20104;-83
2022/10/31 04:59:41;;;;;;;9.75;5.80;;;;;;;11.84;78.64;98707.66;7392076;19;20021;-82
2022/10/31 05:02:07;;;;;;;8.32;5.10;;;;;;;11.88;78.40;98702.94;7392758;19;20513;-82
2022/10/31 05:04:49;;;;;;;13.02;5.75;;;;;;;11.90;78.68;98705.41;7392029;19;20013;-82
2022/10/31 05:07:17;;;;;;;;;;;;;;;11.87;78.78;98714.50;7390420;19;20054;-82
2022/10/31 05:09:58;;;;;;;10.65;5.65;;;;;;;11.85;78.78;98701.41;7389792;19;19922;-82
2022/10/31 05:12:30;;;;;;;12.73;5.85;;;;;;;11.79;78.95;98702.00;7390610;19;20470;-82
2022/10/31 05:15:06;;;;;;;12.07;5.85;;;;;;;11.84;78.77;98696.22;7398912;19;20023;-85
2022/10/31 05:18:18;;;;;;;11.85;5.68;;;;;;;11.80;78.92;98690.41;7398414;19;20118;-82
2022/10/31 05:21:13;;;;;;;10.90;6.27;;;;;;;11.76;79.47;98696.19;7394802;19;20019;-83
2022/10/31 05:23:48;;;;;;;8.93;6.28;;;;;;;11.82;79.32;98693.75;7395373;19;20291;-82
2022/10/31 05:26:35;;;;;;;10.52;5.68;;;;;;;11.93;78.56;98690.03;7392205;19;20021;-83
2022/10/31 05:29:16;;;;;;;18.67;6.45;;;;;;;11.93;78.26;98691.84;7394707;19;20006;-83
2022/10/31 05:31:52;;;;;;;13.95;5.82;;;;;;;11.98;77.15;98694.84;7396882;19;20010;-82
2022/10/31 05:34:37;;;;;;;8.93;5.85;;;;;;;11.91;77.04;98683.22;7396361;19;20018;-82
2022/10/31 05:37:48;;;;;;;11.35;5.90;;;;;;;11.80;76.87;98693.06;7392496;19;20014;-83
2022/10/31 05:40:16;;;;;;;11.30;5.57;;;;;;;11.63;77.31;98693.94;7394159;19;20102;-82
2022/10/31 05:42:44;;;;;;;8.07;5.85;;;;;;;11.74;77.10;98691.06;7393080;19;20469;-82
2022/10/31 05:45:31;;;;;;;10.88;5.47;;;;;;;11.64;77.41;98693.78;7390080;19;20038;-84
2022/10/31 05:48:07;;;;;;;14.65;5.70;;;;;;;11.52;77.65;98687.06;7394507;19;20017;-82
2022/10/31 05:51:04;;;;;;;10.60;6.60;;;;;;;11.60;77.27;98686.31;7398659;19;20091;-82
2022/10/31 05:53:33;;;;;;;11.27;6.15;;;;;;;11.48;77.67;98680.44;7396276;19;20046;-83
2022/10/31 05:56:15;;;;;;;11.52;5.63;;;;;;;11.62;77.40;98684.34;7392985;19;20048;-82
2022/10/31 05:58:46;;;;;;;7.15;5.40;;;;;;;11.56;77.35;98690.25;7395383;19;20023;-81
2022/10/31 06:01:13;;;;;;;11.02;5.90;;;;;;;11.51;77.52;98680.13;7392698;19;20190;-82
2022/10/31 06:03:40;;;;;;;13.18;6.50;;;;;;;11.58;77.47;98691.75;7393194;19;20011;-82
2022/10/31 06:06:09;;;;;;;15.18;5.53;;;;;;;11.35;78.35;98680.81;7401443;19;20018;-84
2022/10/31 06:08:40;;;;;;;13.35;5.82;;;;;;;11.36;78.44;98687.78;7401285;19;20043;-85
2022/10/31 06:11:16;;;;;;;10.52;5.68;;;;;;;11.56;78.46;98687.63;7395889;19;20031;-83
2022/10/31 06:14:03;;;;;;;11.75;5.38;;;;;;;11.60;77.89;98686.31;7397881;19;20352;-84
2022/10/31 06:16:37;;;;;;;9.50;5.50;;;;;;;11.51;77.16;98692.53;7393827;19;20469;-84
2022/10/31 06:19:24;;;;;;;12.75;5.85;;;;;;;11.47;77.56;98684.03;7393682;19;21373;-82
2022/10/31 06:21:55;;;;;;;9.50;5.72;;;;;;;11.41;77.92;98682.84;7392841;19;20015;-82
2022/10/31 06:24:21;;;;;;;12.75;5.90;;;;;;;11.45;78.31;98679.88;7392448;19;20021;-83
2022/10/31 06:27:00;;;;;;;13.70;5.25;;;;;;;11.49;78.75;98683.91;7389554;19;20079;-86
2022/10/31 06:29:27;;;;;;;12.05;5.55;;;;;;;11.56;78.56;98677.84;7391690;19;20014;-83
2022/10/31 06:32:17;;;;;;;14.77;6.03;;;;;;;11.51;78.78;98684.59;7393221;19;20014;-82
2022/10/31 06:34:48;;;;;;;17.90;6.68;;;;;;;11.53;79.04;98678.16;7392367;19;20019;-82
2022/10/31 06:37:27;;;;;;;9.60;6.03;;;;;;;11.65;79.00;98678.72;7390307;19;20014;-82
2022/10/31 06:40:03;;;;;;;11.60;5.82;;;;;;;11.65;79.49;98681.38;7392106;19;20018;-83
2022/10/31 06:42:39;;;;;;;13.00;5.93;;;;;;;11.65;79.32;98679.53;7393962;19;20050;-83
2022/10/31 06:45:08;;;;;;;13.80;6.72;;;;;;;11.74;79.13;98685.75;7390021;19;20031;-82
2022/10/31 06:48:07;;;;;;;9.43;5.47;;;;;;;11.74;79.16;98685.75;7380772;19;20477;-85
2022/10/31 06:51:02;;;;;;;10.50;5.72;;;;;;;11.85;79.13;98684.66;7371948;19;20014;-83
2022/10/31 06:53:29;;;;;;;15.80;6.97;;;;;;;11.79;79.16;98686.09;7378932;19;20017;-84
2022/10/31 06:56:00;;;;;;;11.07;5.72;;;;;;;11.92;79.11;98685.72;7370369;19;20014;-87
2022/10/31 06:58:34;;;;;;;9.15;5.82;;;;;;;11.89;78.84;98691.34;7375967;19;20461;-87
2022/10/31 07:01:04;;;;;;;13.13;6.05;;;;;;;11.99;78.40;98688.59;7370676;19;20086;-86
2022/10/31 07:03:32;;;;;;;12.27;6.07;;;;;;;11.91;78.41;98689.34;7377319;19;20479;-86
2022/10/31 07:05:59;;;;;;;9.38;6.82;;;;;;;11.77;78.86;98695.19;7384919;19;20111;-83
2022/10/31 07:08:27;;;;;;;10.00;6.53;;;;;;;11.93;78.90;98691.84;7385452;19;20014;-82
2022/10/31 07:10:56;;;;;;;11.20;6.32;;;;;;;11.91;79.09;98699.13;7375015;19;20015;-83
2022/10/31 07:13:27;;;;;;;10.65;6.57;;;;;;;11.98;79.05;98686.91;7383172;19;20364;-83
2022/10/31 07:16:04;;;;;;;16.45;6.22;;;;;;;11.97;78.74;98695.84;7384288;19;20051;-83
2022/10/31 07:18:34;;;;;;;10.63;5.82;;;;;;;12.05;78.44;98695.91;7378984;19;20018;-84
2022/10/31 07:21:01;;;;;;;8.85;5.68;;;;;;;12.04;78.21;98696.91;7379625;19;20025;-82
2022/10/31 07:23:28;;;;;;;12.18;6.32;;;;;;;12.08;77.91;98693.78;7384919;19;20006;-83
2022/10/31 07:26:17;;;;;;;16.25;6.40;;;;;;;12.21;77.50;98700.47;7380286;19;20498;-83
2022/10/31 07:28:47;;;;;;;9.85;6.15;;;;;;;12.29;77.44;98689.88;7375398;19;20021;-86
2022/10/31 07:31:17;;;;;;;14.83;6.20;;;;;;;12.30;77.30;98705.66;7385751;19;20018;-85
2022/10/31 07:33:44;;;;;;;11.38;7.30;;;;;;;12.35;77.51;98701.69;7376855;19;20804;-85
2022/10/31 07:36:26;;;;;;;14.65;5.47;;;;;;;12.40;77.16;98705.53;7380238;19;20021;-84
2022/10/31 07:38:58;;;;;;;16.00;6.60;;;;;;;12.13;78.16;98701.25;7379665;19;20018;-86
2022/10/31 07:41:26;;;;;;;10.80;6.40;;;;;;;12.33;77.60;98699.19;7382481;19;20022;-85
2022/10/31 07:43:53;;;;;;;14.18;6.22;;;;;;;12.45;77.34;98703.25;7379521;19;20499;-87
2022/10/31 07:49:25;;;;;;;13.57;6.90;;;;;;;12.32;77.75;98699.34;7395667;19;20019;-83
2022/10/31 07:52:10;;;;;;;14.68;6.78;;;;;;;12.46;78.13;98699.59;7396353;19;20374;-82
2022/10/31 07:54:55;;;;;;;15.95;6.55;;;;;;;12.60;77.68;98697.31;7397580;19;20056;-82
2022/10/31 07:57:26;;;;;;;17.13;6.40;;;;;;;12.68;77.71;98694.69;7393410;19;20014;-83
2022/10/31 08:00:08;;;;;;;14.43;6.93;;;;;;;12.79;78.03;98688.25;7395976;19;20045;-83
2022/10/31 08:02:40;;;;;;;15.73;6.70;;;;;;;12.79;77.48;98689.06;7395876;19;20015;-83
2022/10/31 08:05:30;;;;;;;13.60;6.28;;;;;;;12.94;78.02;98691.94;7393340;19;20013;-84
2022/10/31 08:08:37;;;;;;;12.10;6.75;;;;;;;13.05;77.67;98696.91;7394557;19;20023;-83
2022/10/31 08:11:09;;;;;;;10.95;5.90;;;;;;;13.12;76.91;98703.25;7392242;19;20018;-84
2022/10/31 08:13:37;;;;;;;12.18;6.72;;;;;;;13.21;77.13;98704.09;7391351;19;20018;-84
2022/10/31 08:16:07;;;;;;;12.43;6.60;;;;;;;13.25;77.38;98699.28;7390799;19;20017;-84
2022/10/31 08:18:39;;;;;;;;;;;;;;;13.25;77.15;98701.94;7394707;19;20035;-84
2022/10/31 08:21:10;;;;;;;9.63;6.85;;;;;;;13.47;77.26;98703.97;7376885;19;19968;-83
2022/10/31 08:23:37;;;;;;;14.23;6.95;;;;;;;13.54;76.32;98702.31;7389623;19;20022;-83
2022/10/31 08:26:08;;;;;;;18.85;7.18;;;;;;;13.55;76.67;98703.97;7393885;19;20466;-84
2022/10/31 08:28:54;;;;;;;18.13;7.30;;;;;;;13.57;76.42;98701.16;7396546;19;20469;-84
2022/10/31 08:35:08;;;;;;;13.05;7.28;;;;;;;13.54;76.54;98693.50;7393454;19;20029;-84
2022/10/31 08:37:38;;;;;;;15.00;7.43;;;;;;;13.36;76.17;98694.50;7391012;19;20035;-84
2022/10/31 08:40:06;;;;;;;10.52;6.90;;;;;;;13.55;76.28;98696.00;7390038;19;20021;-84
2022/10/31 08:42:45;;;;;;;17.27;7.40;;;;;;;13.49;75.99;98694.00;7402189;19;20074;-84
2022/10/31 08:45:16;;;;;;;;;;;;;;;13.77;76.19;98685.66;7398816;19;20081;-84
2022/10/31 08:47:45;;;;;;;;;;;;;;;13.61;76.16;98686.50;7396719;19;19923;-84
2022/10/31 08:50:20;;;;;;;;;;;;;;;13.71;76.42;98683.69;7395634;19;19919;-84
2022/10/31 08:53:29;;;;;;;;;;;;;;;13.78;76.50;98682.03;7394214;19;19914;-81
2022/10/31 08:56:17;;;;;;;;;;;;;;;13.89;76.48;98679.00;7391106;19;19918;-82
2022/10/31 08:58:56;;;;;;;;;;;;;;;13.97;76.50;98676.31;7391062;19;19919;-81
2022/10/31 09:01:42;;;;;;;;;;;;;;;13.78;76.25;98672.22;7394762;19;19998;-82
2022/10/31 09:04:09;;;;;;;;;;;;;;;13.90;76.36;98663.88;7394625;19;19926;-81
2022/10/31 09:06:40;;;;;;;;;;;;;;;14.00;75.46;98654.69;7393365;19;19923;-82
2022/10/31 09:09:36;;;;;;;;;;;;;;;14.22;75.87;98658.47;7393107;19;19914;-82
2022/10/31 09:12:03;;;;;;;;;;;;;;;14.47;74.87;98653.03;7394742;19;19940;-82
2022/10/31 09:14:48;;;;;;;;;;;;;;;14.68;74.58;98655.13;7395939;19;19934;-82
2022/10/31 09:17:31;;;;;;;;;;;;;;;14.75;74.81;98658.75;7389178;19;20282;-82
2022/10/31 09:20:16;;;;;;;;;;;;;;;14.82;74.40;98657.03;7391213;19;20368;-82
2022/10/31 09:22:43;;;;;;;;;;;;;;;15.06;74.12;98661.38;7391078;19;19911;-82
2022/10/31 09:25:10;;;;;;;;;;;;;;;14.77;73.86;98662.06;7387714;19;19923;-82
2022/10/31 09:27:38;;;;;;;;;;;;;;;15.17;73.01;98668.13;7393275;19;19946;-82
2022/10/31 09:30:06;;;;;;;;;;;;;;;15.28;73.19;98651.72;7390424;19;19922;-81
2022/10/31 09:32:32;;;;;;;;;;;;;;;15.53;71.71;98662.16;7394740;19;20355;-82
2022/10/31 09:34:59;;;;;;;;;;;;;;;15.63;71.48;98657.41;7394411;19;19922;-81
2022/10/31 09:37:27;;;;;;;;;;;;;;;15.69;70.33;98651.41;7396030;19;19921;-83
2022/10/31 09:40:10;;;;;;;;;;;;;;;15.62;70.33;98649.59;7391603;19;19939;-83
2022/10/31 09:42:39;;;;;;;;;;;;;;;15.44;71.34;98649.94;7389109;19;19915;-83
2022/10/31 09:51:50;;;;;;;;;;;;;;;15.42;71.88;98649.28;7390294;19;19930;-83
2022/10/31 09:54:33;;;;;;;;;;;;;;;15.50;72.39;98644.69;7387835;19;19915;-83
2022/10/31 09:57:28;;;;;;;;;;;;;;;15.49;72.93;98643.03;7385727;19;19930;-83
2022/10/31 10:00:42;;;;;;;;;;;;;;;15.71;71.41;98641.34;7391793;19;19936;-84
2022/10/31 10:03:27;;;;;;;;;;;;;;;15.67;72.45;98637.38;7391402;19;19923;-84
2022/10/31 10:06:04;;;;;;;;;;;;;;;15.43;71.40;98632.25;7388543;19;20028;-84
2022/10/31 10:08:50;;;;;;;;;;;;;;;15.58;71.88;98625.94;7391053;19;19914;-85
2022/10/31 10:11:55;;;;;;;;;;;;;;;15.70;71.94;98626.38;7384816;19;19922;-83
2022/10/31 10:14:38;;;;;;;;;;;;;;;15.80;71.95;98636.78;7385635;19;19940;-83
2022/10/31 10:17:08;;;;;;;;;;;;;;;15.92;71.75;98634.47;7384867;19;19973;-83
2022/10/31 10:19:45;;;;;;;;;;;;;;;16.12;71.22;98632.09;7385530;19;19922;-83
2022/10/31 10:22:25;;;;;;;;;;;;;;;16.30;71.12;98629.03;7384048;19;19937;-84
2022/10/31 10:25:03;;;;;;;;;;;;;;;16.48;69.87;98629.44;7400185;19;19911;-80
2022/10/31 10:27:52;;;;;;;;;;;;;;;16.64;69.25;98636.41;7393641;19;19919;-83
2022/10/31 10:30:20;;;;;;;;;;;;;;;16.63;68.70;98629.44;7383592;19;19932;-80
2022/10/31 10:32:50;;;;;;;;;;;;;;;16.78;68.91;98627.59;7385961;19;20354;-84
2022/10/31 10:35:18;;;;;;;;;;;;;;;16.84;68.67;98628.66;7395364;19;19923;-82
2022/10/31 10:37:45;;;;;;;;;;;;;;;16.75;69.16;98627.94;7392550;19;19944;-82
2022/10/31 10:40:21;;;;;;;;;;;;;;;16.73;70.56;98616.59;7393936;19;19922;-83
2022/10/31 10:43:24;;;;;;;;;;;;;;;16.80;68.44;98619.38;7390778;19;20248;-82
2022/10/31 10:49:52;;;;;;;;;;;;;;;17.01;68.92;98613.19;7414260;19;19922;-84
2022/10/31 10:52:44;;;;;;;;;;;;;;;16.94;68.50;98612.31;7410360;19;19925;-83
2022/10/31 10:55:16;;;;;;;;;;;;;;;17.19;68.53;98610.91;7407092;19;19915;-82
2022/10/31 10:57:50;;;;;;;;;;;;;;;17.30;67.78;98609.56;7404872;19;19922;-83
2022/10/31 11:00:18;;;;;;;;;;;;;;;17.36;66.41;98599.94;7406161;19;19911;-83
2022/10/31 11:02:45;;;;;;;;;;;;;;;17.41;67.29;98603.69;7407240;19;19929;-84
2022/10/31 11:05:26;;;;;;;;;;;;;;;17.37;66.92;98598.91;7408993;19;19922;-84
2022/10/31 11:07:52;;;;;;;;;;;;;;;17.41;66.23;98593.00;7407911;19;19915;-82
2022/10/31 11:10:26;;;;;;;;;;;;;;;17.32;67.04;98586.13;7407872;19;19910;-83
2022/10/31 11:13:07;;;;;;;;;;;;;;;17.04;66.74;98581.59;7411919;19;19918;-84
2022/10/31 11:15:38;;;;;;;;;;;;;;;17.12;66.04;98577.94;7409780;19;19934;-84
2022/10/31 11:18:13;;;;;;;;;;;;;;;17.21;65.80;98574.09;7412284;19;19947;-83
2022/10/31 11:21:05;;;;;;;;;;;;;;;17.32;67.07;98568.25;7412114;19;19923;-83
2022/10/31 11:23:43;;;;;;;;;;;;;;;17.43;65.49;98563.38;7410919;19;19930;-84
2022/10/31 11:26:24;;;;;;;;;;;;;;;17.44;65.40;98549.81;7411454;19;19918;-83
2022/10/31 11:29:00;;;;;;;;;;;;;;;17.55;66.30;98541.22;7404718;19;20697;-83
2022/10/31 11:31:40;;;;;;;;;;;;;;;17.60;65.83;98539.81;7405707;19;19938;-82
2022/10/31 11:34:13;;;;;;;;;;;;;;;17.53;64.91;98545.94;7399471;19;20334;-82
2022/10/31 11:36:53;;;;;;;;;;;;;;;17.71;64.95;98542.75;7401656;19;19955;-82
2022/10/31 11:39:23;;;;;;;;;;;;;;;17.84;65.54;98542.03;7400977;19;19914;-83
2022/10/31 11:41:53;;;;;;;;;;;;;;;17.92;65.62;98536.53;7396122;19;19910;-84
2022/10/31 11:44:42;;;;;;;;;;;;;;;18.03;65.01;98528.94;7399100;19;19907;-82
2022/10/31 11:47:12;;;;;;;;;;;;;;;18.22;65.64;98522.88;7397702;19;20528;-82
2022/10/31 11:49:49;;;;;;;;;;;;;;;18.29;65.49;98515.66;7396287;19;19936;-83
2022/10/31 11:52:37;;;;;;;;;;;;;;;18.25;64.79;98517.09;7404876;19;19926;-84
2022/10/31 11:55:09;;;;;;;;;;;;;;;18.38;65.43;98509.09;7400228;19;19918;-83
2022/10/31 11:57:46;;;;;;;;;;;;;;;18.51;65.24;98505.63;7394801;19;19931;-82
2022/10/31 12:00:22;;;;;;;;;;;;;;;18.50;65.22;98505.81;7395711;19;21246;-83
2022/10/31 12:02:50;;;;;;;;;;;;;;;18.53;64.08;98500.88;7398924;19;19959;-84
2022/10/31 12:05:29;;;;;;;;;;;;;;;18.46;64.79;98499.19;7395229;19;19929;-84
2022/10/31 12:07:55;;;;;;;;;;;;;;;18.37;65.88;98501.25;7393312;19;19923;-81
2022/10/31 12:10:33;;;;;;;;;;;;;;;18.55;64.78;98500.66;7397351;19;19953;-82
2022/10/31 12:13:09;;;;;;;;;;;;;;;18.68;65.35;98506.03;7395702;19;19930;-84
2022/10/31 12:15:38;;;;;;;;;;;;;;;18.68;62.87;98502.56;7400862;19;19947;-82
2022/10/31 12:18:25;;;;;;;;;;;;;;;18.69;64.74;98488.09;7395270;19;20016;-83
2022/10/31 12:21:21;;;;;;;;;;;;;;;18.62;64.22;98488.13;7396137;19;19982;-83
2022/10/31 12:24:03;;;;;;;;;;;;;;;18.52;64.34;98475.13;7397471;19;19919;-84
2022/10/31 12:26:46;;;;;;;;;;;;;;;18.41;64.39;98481.09;7388136;19;19915;-84
2022/10/31 12:29:47;;;;;;;;;;;;;;;18.49;65.46;98480.06;7385032;19;19926;-83
2022/10/31 12:32:30;;;;;;;;;;;;;;;18.48;64.15;98468.50;7391668;19;20260;-84
2022/10/31 12:38:38;;;;;;;;;;;;;;;18.89;65.63;98466.72;7389424;19;19999;-84
2022/10/31 12:41:33;;;;;;;;;;;;;;;19.03;64.98;98458.44;7396234;19;19919;-84
2022/10/31 12:44:23;;;;;;;;;;;;;;;19.02;64.47;98456.81;7395167;19;20273;-84
2022/10/31 12:46:59;;;;;;;;;;;;;;;18.89;65.39;98450.63;7393629;19;19950;-84
2022/10/31 12:49:29;;;;;;;;;;;;;;;18.68;66.72;98449.78;7391760;19;19914;-83
2022/10/31 12:52:19;;;;;;;;;;;;;;;18.48;67.26;98448.94;7396915;19;19922;-83
2022/10/31 12:54:45;;;;;;;;;;;;;;;18.42;68.01;98440.69;7403545;19;19907;-81
2022/10/31 13:04:08;;;;;;;;;;;;;;;;;;;;;
2022/10/31 13:07:03;;;;;;;;;;;;;;;18.36;66.89;98417.41;7381170;19;19930;-90
2022/10/31 13:10:14;;;;;;;;;;;;;;;18.28;67.72;98409.56;7392705;19;19926;-90
2022/10/31 13:16:17;;;;;;;;;;;;;;;18.48;67.00;98408.75;7397117;19;19922;-81
2022/10/31 13:19:24;;;;;;;;;;;;;;;;;;;;;
2022/10/31 13:21:59;;;;;;;;;;;;;;;18.22;68.07;98399.69;7405640;19;19990;-81
2022/10/31 13:24:30;;;;;;;;;;;;;;;18.13;67.98;98390.19;7402978;19;19926;-81
2022/10/31 13:26:58;;;;;;;;;;;;;;;18.28;67.74;98390.81;7397397;19;19915;-80
2022/10/31 13:29:39;;;;;;;;;;;;;;;18.35;67.50;98388.97;7401784;19;19978;-81
2022/10/31 13:32:10;;;;;;;;;;;;;;;18.35;67.01;98378.25;7401779;19;20303;-81
2022/10/31 13:34:45;;;;;;;;;;;;;;;18.28;67.83;98374.75;7404184;19;19922;-80
2022/10/31 13:37:53;;;;;;;;;;;;;;;18.13;67.67;98376.78;7403233;19;19982;-81
2022/10/31 13:40:51;;;;;;;;;;;;;;;18.17;67.97;98370.00;7406078;19;19915;-80
2022/10/31 13:43:18;;;;;;;;;;;;;;;18.21;66.84;98366.69;7400420;19;19935;-80
2022/10/31 13:46:05;;;;;;;;;;;;;;;18.32;66.63;98369.78;7405183;19;19919;-79
2022/10/31 13:48:56;;;;;;;;;;;;;;;18.39;66.69;98376.81;7402823;19;19919;-81
2022/10/31 13:51:36;;;;;;;;;;;;;;;18.43;67.58;98371.84;7401295;19;19921;-80
2022/10/31 13:54:07;;;;;;;;;;;;;;;18.53;67.23;98376.81;7407146;19;19922;-82
2022/10/31 13:56:33;;;;;;;;;;;;;;;18.64;67.37;98373.50;7408601;19;20646;-84
2022/10/31 13:59:06;;;;;;;;;;;;;;;18.70;67.36;98394.13;7401232;19;19927;-80
2022/10/31 14:01:33;;;;;;;;;;;;;;;18.75;66.82;98385.50;7393270;19;19925;-81
2022/10/31 14:04:05;;;;;;;;;;;;;;;18.80;66.54;98374.94;7396860;19;19915;-80
2022/10/31 14:06:43;;;;;;;;;;;;;;;18.89;65.76;98367.53;7389254;19;19915;-79